createdAt,value
2023-01-23T00:00:18.573Z,84.69
2023-01-23T00:05:22.685Z,84.98
2023-01-23T00:10:27.903Z,85.02
2023-01-23T00:15:34.459Z,86.11
2023-01-23T00:20:39.202Z,85.78
2023-01-23T00:25:44.267Z,85.79
2023-01-23T00:30:49.741Z,86.08
2023-01-23T00:35:55.678Z,86.78
2023-01-23T00:41:00.693Z,86.90
2023-01-23T00:46:06.261Z,88.57
2023-01-23T00:51:10.372Z,89.30
2023-01-23T00:56:14.815Z,90.78
2023-01-23T01:01:22.790Z,91.60
2023-01-23T01:06:28.946Z,90.77
2023-01-23T01:11:34.313Z,90.79
2023-01-23T01:16:45.141Z,91.36
2023-01-23T01:21:50.812Z,92.08
2023-01-23T01:26:58.151Z,92.47
2023-01-23T01:32:03.959Z,93.45
2023-01-23T01:37:10.388Z,93.70
2023-01-23T01:42:15.183Z,93.76
2023-01-23T01:47:21.173Z,93.06
2023-01-23T01:52:26.676Z,92.38
2023-01-23T01:57:33.153Z,93.42
2023-01-23T02:02:45.033Z,92.60
2023-01-23T02:07:55.180Z,93.73
2023-01-23T02:13:21.358Z,94.46
2023-01-23T02:18:31.230Z,93.15
2023-01-23T02:23:53.155Z,92.77
2023-01-23T02:29:02.624Z,92.83
2023-01-23T02:34:13.584Z,91.62
2023-01-23T02:39:19.341Z,92.14
2023-01-23T02:44:32.333Z,92.21
2023-01-23T02:49:39.461Z,92.02
2023-01-23T02:54:45.475Z,91.89
2023-01-23T03:00:09.537Z,91.17
2023-01-23T03:05:13.603Z,91.80
2023-01-23T03:10:18.356Z,92.92
2023-01-23T03:15:24.834Z,92.24
2023-01-23T03:20:31.214Z,93.35
2023-01-23T03:25:35.176Z,92.44
2023-01-23T03:30:41.555Z,92.69
2023-01-23T03:35:45.974Z,93.94
2023-01-23T03:41:10.231Z,92.67
2023-01-23T03:46:16.641Z,92.56
2023-01-23T03:51:21.395Z,93.53
2023-01-23T03:56:25.515Z,93.67
2023-01-23T04:01:31.668Z,93.80
2023-01-23T04:06:36.442Z,94.30
2023-01-23T04:11:40.526Z,94.95
2023-01-23T04:16:48.564Z,95.06
2023-01-23T04:21:53.321Z,94.81
2023-01-23T04:26:58.252Z,95.57
2023-01-23T04:32:05.698Z,93.92
2023-01-23T04:37:12.717Z,94.15
2023-01-23T04:42:17.639Z,94.17
2023-01-23T04:47:29.607Z,94.54
2023-01-23T04:52:35.017Z,94.40
2023-01-23T04:57:39.915Z,93.52
2023-01-23T05:02:57.154Z,92.96
2023-01-23T05:08:01.940Z,90.92
2023-01-23T05:13:06.996Z,90.08
2023-01-23T05:18:12.502Z,87.85
2023-01-23T05:23:17.789Z,87.03
2023-01-23T05:28:29.678Z,87.00
2023-01-23T05:33:35.081Z,86.58
2023-01-23T05:38:40.374Z,87.69
2023-01-23T05:43:45.561Z,87.51
2023-01-23T05:49:00.608Z,87.05
2023-01-23T05:54:05.021Z,86.89
2023-01-23T05:59:11.911Z,87.27
2023-01-23T06:04:26.227Z,88.39
2023-01-23T06:09:48.989Z,90.14
2023-01-23T06:14:53.081Z,92.14
2023-01-23T06:20:01.916Z,93.01
2023-01-23T06:25:08.800Z,95.04
2023-01-23T06:30:14.352Z,95.52
2023-01-23T06:35:24.388Z,96.04
2023-01-23T06:40:28.637Z,96.47
2023-01-23T06:45:57.916Z,96.56
2023-01-23T06:51:04.731Z,96.82
2023-01-23T06:56:11.936Z,96.32
2023-01-23T07:01:18.530Z,96.12
2023-01-23T07:06:42.735Z,96.26
2023-01-23T07:11:48.591Z,96.25
2023-01-23T07:16:55.979Z,96.74
2023-01-23T07:22:03.429Z,95.93
2023-01-23T07:27:07.590Z,95.74
2023-01-23T07:32:12.700Z,95.87
2023-01-23T07:37:20.637Z,94.79
2023-01-23T07:42:26.840Z,94.68
2023-01-23T07:47:31.295Z,93.07
2023-01-23T07:52:37.228Z,91.45
2023-01-23T07:57:42.859Z,91.48
2023-01-23T08:02:47.321Z,88.88
2023-01-23T08:08:07.352Z,86.63
2023-01-23T08:13:19.098Z,87.07
2023-01-23T08:18:23.719Z,87.64
2023-01-23T08:23:33.774Z,87.49
2023-01-23T08:28:37.884Z,88.14
2023-01-23T08:33:42.209Z,88.91
2023-01-23T08:38:48.376Z,88.15
2023-01-23T08:43:52.796Z,88.71
2023-01-23T08:48:58.026Z,87.82
2023-01-23T08:54:04.291Z,87.78
2023-01-23T08:59:09.572Z,88.52
2023-01-23T09:04:13.879Z,87.00
2023-01-23T09:09:20.577Z,87.97
2023-01-23T09:14:25.304Z,88.27
2023-01-23T09:19:34.661Z,87.51
2023-01-23T09:24:40.092Z,88.04
2023-01-23T09:29:44.285Z,87.55
2023-01-23T09:34:49.709Z,87.89
2023-01-23T09:39:55.433Z,88.64
2023-01-23T09:45:05.250Z,88.33
2023-01-23T09:50:22.536Z,88.38
2023-01-23T09:55:41.626Z,88.41
2023-01-23T10:00:46.740Z,88.63
2023-01-23T10:06:06.212Z,88.92
2023-01-23T10:11:18.784Z,88.99
2023-01-23T10:16:53.639Z,88.51
2023-01-23T10:22:05.487Z,88.61
2023-01-23T10:27:19.729Z,88.13
2023-01-23T10:32:30.374Z,87.47
2023-01-23T10:37:44.885Z,86.52
2023-01-23T10:42:50.609Z,85.58
2023-01-23T10:47:55.556Z,85.08
2023-01-23T10:53:09.711Z,85.80
2023-01-23T10:58:31.088Z,85.89
2023-01-23T11:03:37.675Z,86.32
2023-01-23T11:08:53.565Z,86.81
2023-01-23T11:14:09.531Z,86.74
2023-01-23T11:19:20.812Z,86.70
2023-01-23T11:24:40.386Z,86.25
2023-01-23T11:30:02.566Z,85.41
2023-01-23T11:35:15.200Z,85.17
2023-01-23T11:40:21.488Z,84.83
2023-01-23T11:45:46.871Z,85.13
2023-01-23T11:50:55.741Z,85.26
2023-01-23T11:56:24.236Z,85.07
2023-01-23T12:01:36.186Z,85.23
2023-01-23T12:06:49.596Z,84.63
2023-01-23T12:12:09.387Z,85.34
2023-01-23T12:17:27.516Z,85.70
2023-01-23T12:22:46.607Z,86.09
2023-01-23T12:27:58.041Z,85.51
2023-01-23T12:33:19.921Z,85.54
2023-01-23T12:38:30.998Z,86.38
2023-01-23T12:43:39.615Z,86.64
2023-01-23T12:48:51.789Z,86.45
2023-01-23T12:53:59.979Z,86.84
2023-01-23T12:59:14.560Z,87.28
2023-01-23T13:04:42.312Z,88.33
2023-01-23T13:10:03.788Z,87.77
2023-01-23T13:15:39.895Z,88.63
2023-01-23T13:21:15.014Z,88.71
2023-01-23T13:26:37.322Z,88.94
2023-01-23T13:31:46.436Z,89.00
2023-01-23T13:36:53.469Z,89.78
2023-01-23T13:42:35.986Z,90.41
2023-01-23T14:21:13.062Z,91.81
2023-01-23T14:26:23.083Z,91.01
2023-01-23T14:31:29.807Z,90.28
2023-01-23T14:36:36.479Z,90.00
2023-01-23T14:41:43.762Z,90.48
2023-01-23T14:46:54.483Z,90.72
2023-01-23T14:52:01.486Z,90.41
2023-01-23T14:57:10.416Z,90.96
2023-01-23T15:02:36.115Z,90.20
2023-01-23T15:07:45.757Z,90.21
2023-01-23T15:12:57.655Z,91.27
2023-01-23T15:18:03.114Z,90.90
2023-01-23T15:23:28.641Z,90.63
2023-01-23T15:28:41.331Z,90.55
2023-01-23T15:33:47.968Z,90.00
2023-01-23T15:38:52.504Z,91.65
2023-01-23T15:43:57.973Z,90.52
2023-01-23T15:49:03.378Z,90.92
2023-01-23T15:54:19.282Z,91.14
2023-01-23T15:59:25.586Z,91.61
2023-01-23T16:04:29.656Z,91.09
2023-01-23T16:09:37.306Z,91.09
2023-01-23T16:14:43.745Z,90.83
2023-01-23T16:19:48.376Z,90.99
2023-01-23T16:24:53.037Z,90.76
2023-01-23T16:29:59.579Z,92.37
2023-01-23T16:35:05.962Z,92.50
2023-01-23T16:40:22.051Z,93.82
2023-01-23T16:45:33.763Z,92.80
2023-01-23T16:50:43.171Z,91.68
2023-01-23T16:55:48.014Z,90.83
2023-01-23T17:01:00.365Z,90.55
2023-01-23T17:06:06.091Z,90.36
2023-01-23T17:11:22.076Z,91.38
2023-01-23T17:16:43.946Z,91.37
2023-01-23T17:21:49.591Z,90.26
2023-01-23T17:27:01.906Z,90.07
2023-01-23T17:32:08.598Z,90.61
2023-01-23T17:37:21.595Z,90.13
2023-01-23T17:42:26.816Z,90.31
2023-01-23T17:47:35.644Z,89.49
2023-01-23T17:52:41.119Z,89.75
2023-01-23T17:57:50.582Z,90.48
2023-01-23T18:03:03.168Z,89.49
2023-01-23T18:08:08.885Z,89.05
2023-01-23T18:13:21.116Z,87.75
2023-01-23T18:18:37.591Z,87.61
2023-01-23T18:23:45.684Z,87.71
2023-01-23T18:29:09.071Z,87.66
2023-01-23T18:34:34.263Z,87.13
2023-01-23T18:39:48.088Z,86.54
2023-01-23T18:45:00.811Z,85.98
2023-01-23T18:50:12.388Z,85.02
2023-01-23T18:55:31.356Z,85.36
2023-01-23T19:00:46.924Z,84.80
2023-01-23T19:05:55.066Z,84.59
2023-01-23T19:11:07.483Z,84.55
2023-01-23T19:16:17.995Z,83.70
2023-01-23T19:21:30.342Z,83.43
2023-01-23T19:26:36.452Z,83.18
2023-01-23T19:31:47.484Z,84.05
2023-01-23T19:37:01.988Z,83.21
2023-01-23T19:42:10.331Z,83.18
2023-01-23T19:47:15.123Z,83.07
2023-01-23T19:52:24.461Z,82.52
2023-01-23T19:57:29.809Z,82.46
2023-01-23T20:02:35.480Z,82.46
2023-01-23T20:07:46.742Z,82.36
2023-01-23T20:12:57.663Z,83.00
2023-01-23T20:18:04.399Z,82.96
2023-01-23T20:23:13.160Z,82.78
2023-01-23T20:28:18.837Z,83.04
2023-01-23T20:33:24.074Z,82.73
2023-01-23T20:38:30.338Z,82.53
2023-01-23T20:43:35.643Z,82.17
2023-01-23T20:48:43.016Z,81.70
2023-01-23T20:53:52.251Z,80.76
2023-01-23T20:59:15.564Z,80.98
2023-01-23T21:04:22.290Z,81.75
2023-01-23T21:09:29.242Z,81.73
2023-01-23T21:14:33.757Z,80.51
2023-01-23T21:19:40.325Z,80.10
2023-01-23T21:24:58.848Z,80.53
2023-01-23T21:30:03.951Z,80.28
2023-01-23T21:35:08.500Z,81.79
2023-01-23T21:40:15.237Z,81.75
2023-01-23T21:45:19.897Z,80.14
2023-01-23T21:50:24.267Z,80.53
2023-01-23T21:55:29.668Z,80.12
2023-01-23T22:00:51.651Z,78.91
2023-01-23T22:05:59.982Z,79.00
2023-01-23T22:11:06.061Z,78.68
2023-01-23T22:16:12.000Z,78.44
2023-01-23T22:21:17.810Z,79.71
2023-01-23T22:26:23.283Z,79.72
2023-01-23T22:31:27.352Z,79.27
2023-01-23T22:36:32.669Z,79.39
2023-01-23T22:41:38.552Z,79.01
2023-01-23T22:46:46.130Z,80.20
2023-01-23T22:51:51.694Z,80.46
2023-01-23T22:57:01.149Z,79.03
2023-01-23T23:02:05.177Z,80.45
2023-01-23T23:07:09.542Z,81.05
2023-01-23T23:12:14.894Z,79.78
2023-01-23T23:17:19.034Z,80.58
2023-01-23T23:22:25.857Z,81.21
2023-01-23T23:27:31.917Z,82.16
2023-01-23T23:32:36.651Z,80.77
2023-01-23T23:37:40.668Z,81.67
2023-01-23T23:42:46.264Z,81.97
2023-01-23T23:47:50.225Z,81.54
2023-01-23T23:52:54.317Z,81.70
2023-01-23T23:58:00.724Z,80.38
